Time;durP1;ratioP1;P1;durP2;ratioP2;P2;SDS_P1;SDS_P2;PMS_P1;PMS_P2;Temp;Humidity;BMP_temperature;BMP_pressure;BME280_temperature;BME280_humidity;BME280_pressure;Samples;Min_cycle;Max_cycle;Signal;HPM_P1;HPM_P2
2022/04/18 00:02:21;;;;;;;1.90;1.70;;;5.90;99.90;;;;;;4962590;28;20181;-76
2022/04/18 00:04:47;;;;;;;2.37;1.93;;;5.90;99.90;;;;;;4994970;28;20175;-77
2022/04/18 00:07:13;;;;;;;3.03;1.90;;;5.90;99.90;;;;;;4978345;28;20201;-77
2022/04/18 00:09:38;;;;;;;2.40;1.97;;;6.00;99.90;;;;;;4962117;28;20184;-77
2022/04/18 00:12:04;;;;;;;2.40;2.10;;;6.00;99.90;;;;;;4978551;28;20215;-76
2022/04/18 00:14:30;;;;;;;2.93;2.00;;;6.10;99.90;;;;;;4979117;28;20176;-77
2022/04/18 00:16:57;;;;;;;4.23;2.40;;;6.00;99.90;;;;;;4978734;28;20197;-77
2022/04/18 00:19:23;;;;;;;2.63;2.10;;;6.00;99.90;;;;;;4978932;28;20263;-77
2022/04/18 00:21:49;;;;;;;3.73;2.10;;;6.00;99.90;;;;;;4978387;28;20225;-76
2022/04/18 00:24:17;;;;;;;2.20;1.80;;;6.00;99.90;;;;;;4978728;28;20190;-76
2022/04/18 00:26:43;;;;;;;2.73;1.97;;;5.90;99.90;;;;;;4995969;28;20218;-76
2022/04/18 00:29:10;;;;;;;2.13;1.93;;;5.80;99.90;;;;;;4996261;28;20183;-76
2022/04/18 00:31:36;;;;;;;3.27;2.30;;;5.80;99.90;;;;;;4978650;28;20208;-76
2022/04/18 00:34:02;;;;;;;2.63;2.13;;;5.60;99.90;;;;;;4962544;28;20180;-76
2022/04/18 00:36:27;;;;;;;3.40;2.20;;;5.40;99.90;;;;;;4978754;28;20213;-76
2022/04/18 00:38:53;;;;;;;4.27;2.33;;;5.20;99.90;;;;;;4994761;28;20185;-76
2022/04/18 00:41:19;;;;;;;2.40;2.07;;;5.00;99.90;;;;;;4978255;28;20188;-76
2022/04/18 00:43:49;;;;;;;2.43;1.90;;;4.60;99.90;;;;;;4978620;28;20181;-76
2022/04/18 00:46:17;;;;;;;1.77;1.60;;;4.70;99.90;;;;;;4978847;28;20215;-76
2022/04/18 00:48:44;;;;;;;2.73;2.00;;;4.80;99.90;;;;;;4978327;28;20186;-76
2022/04/18 00:51:15;;;;;;;2.60;1.80;;;4.90;99.90;;;;;;4994506;28;20203;-76
2022/04/18 00:53:42;;;;;;;2.80;1.80;;;4.90;99.90;;;;;;4978136;28;20543;-76
2022/04/18 00:56:12;;;;;;;3.00;2.03;;;4.90;99.90;;;;;;5006874;22;20630;-76
2022/04/18 00:58:39;;;;;;;3.27;2.00;;;4.80;99.90;;;;;;5035258;28;20178;-77
2022/04/18 01:01:05;;;;;;;3.03;2.20;;;4.80;99.90;;;;;;5018551;28;20173;-77
2022/04/18 01:03:33;;;;;;;3.07;1.73;;;4.70;99.90;;;;;;5018368;28;20544;-77
2022/04/18 01:06:03;;;;;;;2.90;1.70;;;4.70;99.90;;;;;;5034899;28;20189;-77
2022/04/18 01:08:29;;;;;;;2.20;2.00;;;4.70;99.90;;;;;;5018754;28;20184;-77
2022/04/18 01:10:55;;;;;;;2.10;1.80;;;4.80;99.90;;;;;;5052571;28;20692;-77
2022/04/18 01:13:21;;;;;;;2.40;1.90;;;4.60;99.90;;;;;;5018500;28;20177;-77
2022/04/18 01:15:52;;;;;;;3.90;2.00;;;4.60;99.90;;;;;;5018517;28;20181;-77
2022/04/18 01:18:18;;;;;;;2.93;2.00;;;4.40;99.90;;;;;;5018438;28;20664;-77
2022/04/18 01:20:44;;;;;;;3.00;2.20;;;4.50;99.90;;;;;;5014810;28;20182;-77
2022/04/18 01:23:10;;;;;;;2.20;1.90;;;4.50;99.90;;;;;;5014858;28;20232;-77
2022/04/18 01:31:04;;;;;;;2.20;2.00;;;4.70;99.90;;;;;;5071539;28;20206;-77
2022/04/18 01:33:30;;;;;;;3.47;2.10;;;4.60;99.90;;;;;;5054367;28;20172;-77
2022/04/18 01:35:56;;;;;;;1.83;1.63;;;4.70;99.90;;;;;;5045980;28;20184;-77
2022/04/18 01:38:22;;;;;;;2.43;1.70;;;4.60;99.90;;;;;;5054450;28;20176;-77
2022/04/18 01:40:47;;;;;;;2.77;1.70;;;4.40;99.90;;;;;;5054596;28;20191;-77
2022/04/18 01:43:13;;;;;;;2.73;1.70;;;4.30;99.90;;;;;;5071056;28;20202;-77
2022/04/18 01:45:38;;;;;;;3.33;2.00;;;4.30;99.90;;;;;;5051199;28;20173;-77
2022/04/18 01:48:05;;;;;;;2.43;1.70;;;4.40;99.90;;;;;;5034558;28;20201;-77
2022/04/18 01:50:30;;;;;;;2.07;1.60;;;4.40;99.90;;;;;;5034270;28;20300;-77
2022/04/18 01:52:56;;;;;;;1.77;1.53;;;4.50;99.90;;;;;;5037663;28;20619;-77
2022/04/18 01:55:21;;;;;;;1.80;1.47;;;4.40;99.90;;;;;;5038485;28;20173;-77
2022/04/18 01:57:47;;;;;;;2.43;1.60;;;4.30;99.90;;;;;;5054887;28;20212;-77
2022/04/18 02:00:13;;;;;;;3.03;1.50;;;4.20;99.90;;;;;;5038483;28;20184;-77
2022/04/18 02:02:38;;;;;;;2.57;1.50;;;4.10;99.90;;;;;;5038063;28;20243;-77
2022/04/18 02:05:07;;;;;;;2.77;1.80;;;4.20;99.90;;;;;;5038120;28;20182;-77
2022/04/18 02:07:33;;;;;;;2.53;1.73;;;4.20;99.90;;;;;;5038020;28;20201;-77
2022/04/18 02:09:59;;;;;;;2.03;1.80;;;4.30;99.90;;;;;;5038013;28;20314;-77
2022/04/18 02:12:24;;;;;;;1.70;1.60;;;4.20;99.90;;;;;;5037780;28;20173;-77
2022/04/18 02:14:50;;;;;;;1.97;1.77;;;4.30;99.90;;;;;;5038182;28;20181;-77
2022/04/18 02:17:16;;;;;;;2.40;1.50;;;4.10;99.90;;;;;;5037921;28;20201;-77
2022/04/18 02:19:42;;;;;;;2.57;1.47;;;4.20;99.90;;;;;;5054620;28;20184;-77
2022/04/18 02:22:08;;;;;;;2.43;1.83;;;4.00;99.90;;;;;;5037894;28;20208;-76
2022/04/18 02:24:33;;;;;;;1.83;1.50;;;3.90;99.90;;;;;;5037702;28;20266;-76
2022/04/18 02:26:59;;;;;;;2.20;1.80;;;4.00;99.90;;;;;;5037937;28;20197;-76
2022/04/18 02:29:24;;;;;;;2.47;2.00;;;3.80;99.90;;;;;;5037673;28;20192;-76
2022/04/18 02:34:34;;;;;;;2.70;1.70;;;3.70;99.90;;;;;;5054810;28;20176;-77
2022/04/18 02:37:00;;;;;;;2.70;1.70;;;3.60;99.90;;;;;;5037392;28;20196;-77
2022/04/18 02:39:26;;;;;;;2.23;1.63;;;3.70;99.90;;;;;;5037739;28;20172;-76
2022/04/18 02:42:00;;;;;;;2.13;1.73;;;3.90;99.90;;;;;;5037228;28;20216;-76
2022/04/18 02:44:26;;;;;;;3.00;1.70;;;4.00;99.90;;;;;;5037481;28;20183;-76
2022/04/18 02:46:51;;;;;;;1.90;1.70;;;4.10;99.90;;;;;;5037226;28;20200;-76
2022/04/18 02:49:17;;;;;;;2.20;1.70;;;4.00;99.90;;;;;;5054085;28;20264;-76
2022/04/18 02:51:43;;;;;;;2.10;1.67;;;3.90;99.90;;;;;;5037283;28;20213;-76
2022/04/18 02:54:08;;;;;;;2.63;1.50;;;3.80;99.90;;;;;;5037292;28;20220;-77
2022/04/18 02:56:34;;;;;;;2.10;1.90;;;3.90;99.90;;;;;;5037118;28;20682;-77
2022/04/18 02:58:59;;;;;;;2.77;1.90;;;3.80;99.90;;;;;;5037274;28;20175;-77
2022/04/18 03:01:25;;;;;;;1.73;1.63;;;3.70;99.90;;;;;;5037408;28;20216;-77
2022/04/18 03:03:50;;;;;;;2.10;1.90;;;3.60;99.90;;;;;;5052682;28;20204;-77
2022/04/18 03:06:16;;;;;;;2.77;1.63;;;3.60;99.90;;;;;;5036909;28;20212;-77
2022/04/18 03:08:42;;;;;;;2.53;1.83;;;3.50;99.90;;;;;;5036972;28;20185;-77
2022/04/18 03:11:08;;;;;;;2.37;1.80;;;3.50;99.90;;;;;;5036854;28;20208;-77
2022/04/18 03:13:36;;;;;;;2.63;1.90;;;3.60;99.90;;;;;;5036693;28;20231;-77
2022/04/18 03:16:03;;;;;;;2.07;1.87;;;3.50;99.90;;;;;;5037102;28;20183;-77
2022/04/18 03:18:28;;;;;;;2.53;1.60;;;3.40;99.90;;;;;;5037065;28;20207;-77
2022/04/18 03:20:54;;;;;;;1.80;1.70;;;3.50;99.90;;;;;;5036761;28;20548;-77
2022/04/18 03:23:20;;;;;;;2.10;1.70;;;3.40;99.90;;;;;;5036609;28;20555;-76
2022/04/18 03:25:46;;;;;;;2.00;1.70;;;3.20;99.90;;;;;;5053331;28;20248;-76
2022/04/18 03:28:11;;;;;;;2.07;1.87;;;3.40;99.90;;;;;;5037135;28;20242;-77
2022/04/18 03:30:37;;;;;;;3.10;1.90;;;3.50;99.90;;;;;;5036356;28;20208;-77
2022/04/18 03:33:03;;;;;;;1.90;1.57;;;3.50;99.90;;;;;;5036506;28;20194;-77
2022/04/18 03:35:30;;;;;;;1.80;1.60;;;3.40;99.90;;;;;;5036660;28;20642;-77
2022/04/18 03:40:40;;;;;;;3.17;1.90;;;3.30;99.90;;;;;;5053609;28;20234;-77
2022/04/18 03:43:06;;;;;;;2.37;1.90;;;3.10;99.90;;;;;;5036139;28;20186;-77
2022/04/18 03:45:32;;;;;;;2.00;1.80;;;3.30;99.90;;;;;;5036166;28;20188;-76
2022/04/18 03:47:58;;;;;;;2.13;1.77;;;3.20;99.90;;;;;;5053270;28;20228;-76
2022/04/18 03:50:23;;;;;;;2.53;1.67;;;3.20;99.90;;;;;;5036004;28;20218;-77
2022/04/18 03:52:49;;;;;;;3.67;2.07;;;3.30;99.90;;;;;;5036223;28;20187;-77
2022/04/18 03:55:15;;;;;;;2.77;1.90;;;3.20;99.90;;;;;;5036304;28;20184;-77
2022/04/18 03:57:40;;;;;;;2.07;1.70;;;3.10;99.90;;;;;;5036015;28;20299;-77
2022/04/18 04:00:07;;;;;;;2.40;2.10;;;2.90;99.90;;;;;;5036212;28;20188;-77
2022/04/18 04:02:33;;;;;;;2.57;1.93;;;3.00;99.90;;;;;;5053749;28;20218;-76
2022/04/18 04:04:59;;;;;;;3.53;2.20;;;2.90;99.90;;;;;;5036063;28;20187;-77
2022/04/18 04:07:24;;;;;;;2.30;1.90;;;2.90;99.90;;;;;;5035649;28;20225;-77
2022/04/18 04:09:50;;;;;;;3.23;1.90;;;2.80;99.90;;;;;;5035658;28;20277;-77
2022/04/18 04:12:31;;;;;;;2.73;1.80;;;2.70;99.90;;;;;;5035550;28;20186;-76
2022/04/18 04:14:57;;;;;;;2.20;1.90;;;2.70;99.90;;;;;;5035734;28;20175;-77
2022/04/18 04:17:22;;;;;;;2.17;1.77;;;2.70;99.90;;;;;;5035605;28;20346;-77
2022/04/18 04:19:48;;;;;;;2.47;1.90;;;3.00;99.90;;;;;;5035610;28;20204;-76
2022/04/18 04:22:14;;;;;;;2.27;1.90;;;3.10;99.90;;;;;;5035363;28;20180;-76
2022/04/18 04:24:40;;;;;;;1.93;1.70;;;2.90;99.90;;;;;;5035851;28;20167;-76
2022/04/18 04:27:06;;;;;;;2.20;1.77;;;2.80;99.90;;;;;;5051657;28;20213;-76
2022/04/18 04:29:31;;;;;;;3.03;2.00;;;2.70;99.90;;;;;;5053183;28;20175;-76
2022/04/18 04:31:57;;;;;;;3.77;2.07;;;2.90;99.90;;;;;;5035297;28;20206;-75
2022/04/18 04:34:23;;;;;;;1.83;1.70;;;2.90;99.90;;;;;;5035566;28;20645;-76
2022/04/18 04:36:49;;;;;;;2.30;1.90;;;4.00;99.90;;;;;;5035637;28;20248;-76
2022/04/18 04:39:14;;;;;;;3.57;2.10;;;4.40;99.90;;;;;;5035284;28;20185;-76
2022/04/18 04:41:40;;;;;;;2.30;1.80;;;4.90;99.90;;;;;;5035144;28;20254;-76
2022/04/18 04:44:06;;;;;;;2.87;1.80;;;4.70;99.90;;;;;;5034968;28;20244;-76
2022/04/18 04:46:33;;;;;;;2.50;1.73;;;4.90;99.90;;;;;;5035100;28;20568;-76
2022/04/18 04:48:58;;;;;;;3.67;2.00;;;5.10;99.90;;;;;;5051771;28;20180;-77
2022/04/18 04:51:24;;;;;;;2.67;2.07;;;5.20;99.90;;;;;;5051833;28;20208;-76
2022/04/18 04:53:50;;;;;;;1.90;1.63;;;5.30;99.90;;;;;;5034962;28;20168;-76
2022/04/18 04:56:21;;;;;;;2.27;1.70;;;4.70;99.90;;;;;;5034733;28;20179;-75
2022/04/18 04:58:47;;;;;;;2.00;1.80;;;4.40;99.90;;;;;;5034995;28;20186;-75
2022/04/18 05:01:12;;;;;;;2.00;1.80;;;3.90;99.90;;;;;;5034912;28;20183;-76
2022/04/18 05:03:38;;;;;;;1.97;1.77;;;3.70;99.90;;;;;;5034658;28;20187;-76
2022/04/18 05:06:04;;;;;;;2.87;1.80;;;3.40;99.90;;;;;;5034760;28;20188;-75
2022/04/18 05:08:29;;;;;;;4.33;2.20;;;3.20;99.90;;;;;;5034948;28;20180;-75
2022/04/18 05:10:59;;;;;;;3.00;1.80;;;3.30;99.90;;;;;;5034756;28;20693;-75
2022/04/18 05:13:25;;;;;;;3.00;1.90;;;3.10;99.90;;;;;;5034884;28;20180;-75
2022/04/18 05:15:50;;;;;;;3.80;2.00;;;3.10;99.90;;;;;;5034785;28;20171;-75
2022/04/18 05:18:16;;;;;;;2.97;2.57;;;3.10;99.90;;;;;;5034875;28;20250;-76
2022/04/18 05:20:42;;;;;;;3.57;2.40;;;3.00;99.90;;;;;;5034947;28;20271;-76
2022/04/18 05:23:07;;;;;;;3.97;2.80;;;3.10;99.90;;;;;;5034721;28;20184;-76
2022/04/18 05:25:33;;;;;;;4.27;2.67;;;3.00;99.90;;;;;;5035080;28;20227;-75
2022/04/18 05:27:59;;;;;;;4.90;3.30;;;2.90;99.90;;;;;;5040963;28;20293;-76
2022/04/18 05:30:24;;;;;;;4.07;2.70;;;3.00;99.90;;;;;;5041365;28;20203;-76
2022/04/18 05:32:50;;;;;;;4.13;2.60;;;3.10;99.90;;;;;;5041329;28;20595;-76
2022/04/18 05:35:15;;;;;;;3.90;2.60;;;3.10;99.90;;;;;;5041356;28;20186;-76
2022/04/18 05:37:41;;;;;;;3.80;2.70;;;3.10;99.90;;;;;;5040690;28;20658;-76
2022/04/18 05:40:08;;;;;;;3.17;2.60;;;3.00;99.90;;;;;;5040986;28;20229;-76
2022/04/18 05:42:34;;;;;;;2.63;2.20;;;3.00;99.90;;;;;;5041186;28;20233;-76
2022/04/18 05:44:59;;;;;;;2.37;2.17;;;3.00;99.90;;;;;;5041190;28;20181;-76
2022/04/18 05:47:25;;;;;;;2.80;2.20;;;3.00;99.90;;;;;;5041075;28;20206;-76
2022/04/18 05:49:50;;;;;;;3.67;2.10;;;3.10;99.90;;;;;;5041393;28;20191;-75
2022/04/18 05:52:20;;;;;;;2.50;2.20;;;3.20;99.90;;;;;;5040924;28;20209;-75
2022/04/18 05:54:45;;;;;;;3.13;2.27;;;3.30;99.90;;;;;;5041016;28;20175;-76
2022/04/18 05:57:11;;;;;;;3.90;2.40;;;3.40;99.90;;;;;;5051172;28;20212;-76
2022/04/18 05:59:36;;;;;;;2.90;2.50;;;3.50;99.90;;;;;;5060959;28;20177;-75
2022/04/18 06:02:03;;;;;;;2.60;2.40;;;3.50;99.90;;;;;;5062637;28;20175;-76
2022/04/18 06:04:28;;;;;;;3.80;2.43;;;3.50;99.90;;;;;;5040805;28;20184;-75
2022/04/18 06:06:54;;;;;;;3.10;2.40;;;3.70;99.90;;;;;;5040993;28;20222;-75
2022/04/18 06:09:19;;;;;;;3.80;2.63;;;3.80;99.90;;;;;;5041077;28;20239;-76
2022/04/18 06:11:45;;;;;;;2.90;2.60;;;4.00;99.90;;;;;;5040997;28;20204;-76
2022/04/18 06:14:11;;;;;;;4.53;2.63;;;4.00;99.90;;;;;;5057592;28;20204;-76
2022/04/18 06:16:36;;;;;;;2.50;2.30;;;4.10;99.90;;;;;;5040728;28;20250;-77
2022/04/18 06:19:02;;;;;;;2.87;2.60;;;4.30;99.90;;;;;;5040757;28;20177;-76
2022/04/18 06:21:27;;;;;;;2.87;2.20;;;4.40;99.90;;;;;;5041076;28;20176;-78
2022/04/18 06:23:54;;;;;;;3.90;2.60;;;4.60;99.90;;;;;;5040889;28;20215;-77
2022/04/18 06:26:20;;;;;;;3.07;2.60;;;4.80;99.90;;;;;;5040611;28;20280;-76
2022/04/18 06:28:46;;;;;;;2.57;2.37;;;4.90;99.90;;;;;;5040690;28;20610;-75
2022/04/18 06:31:11;;;;;;;3.10;2.63;;;5.00;99.90;;;;;;5040810;28;20208;-76
2022/04/18 06:33:37;;;;;;;2.73;2.30;;;5.10;99.90;;;;;;5040628;28;20675;-75
2022/04/18 06:36:03;;;;;;;2.63;2.30;;;5.20;99.90;;;;;;5040406;28;20178;-76
2022/04/18 06:38:29;;;;;;;3.40;2.50;;;5.20;99.90;;;;;;5037537;28;20255;-75
2022/04/18 06:40:58;;;;;;;7.33;3.20;;;5.30;99.90;;;;;;5054209;28;20200;-77
2022/04/18 06:43:24;;;;;;;3.70;2.70;;;5.50;99.90;;;;;;5037524;28;20178;-78
2022/04/18 06:45:50;;;;;;;2.97;2.67;;;5.80;99.90;;;;;;5038035;28;20181;-77
2022/04/18 06:48:22;;;;;;;3.50;2.40;;;5.80;99.90;;;;;;5037123;28;20216;-75
2022/04/18 06:50:48;;;;;;;2.70;2.20;;;5.80;99.90;;;;;;5020903;28;20194;-75
2022/04/18 06:53:13;;;;;;;3.47;2.40;;;5.80;99.90;;;;;;5020118;28;20666;-77
2022/04/18 06:58:24;;;;;;;3.20;2.20;;;5.90;99.90;;;;;;5047294;22;20278;-76
2022/04/18 07:00:50;;;;;;;3.10;2.57;;;6.10;99.90;;;;;;5036747;28;20181;-76
2022/04/18 07:03:15;;;;;;;2.77;2.30;;;6.20;99.90;;;;;;5020221;28;20192;-76
2022/04/18 07:05:41;;;;;;;4.03;2.53;;;6.30;99.90;;;;;;5037329;28;20190;-76
2022/04/18 07:08:08;;;;;;;2.77;2.37;;;6.50;99.90;;;;;;5020771;28;20197;-76
2022/04/18 07:10:33;;;;;;;2.90;2.40;;;6.60;99.90;;;;;;5020789;28;20280;-76
2022/04/18 07:12:59;;;;;;;3.23;2.50;;;6.70;99.90;;;;;;5020495;28;20182;-76
2022/04/18 07:15:25;;;;;;;3.93;2.43;;;6.90;99.90;;;;;;5020444;28;20180;-76
2022/04/18 07:17:51;;;;;;;3.40;2.57;;;7.10;99.90;;;;;;5020717;28;20195;-76
2022/04/18 07:20:16;;;;;;;2.80;2.60;;;7.20;99.90;;;;;;5020303;28;20175;-75
2022/04/18 07:22:42;;;;;;;3.20;2.57;;;7.40;99.90;;;;;;5020263;28;20179;-77
2022/04/18 07:25:08;;;;;;;2.83;2.63;;;7.50;99.90;;;;;;5021286;28;20182;-75
2022/04/18 07:27:34;;;;;;;4.00;2.50;;;7.70;99.90;;;;;;5039802;28;20253;-75
2022/04/18 07:30:00;;;;;;;3.10;2.37;;;7.80;99.90;;;;;;5063461;28;20262;-75
2022/04/18 07:32:26;;;;;;;2.73;2.30;;;7.90;99.90;;;;;;5039565;28;20268;-75
2022/04/18 07:34:53;;;;;;;3.03;2.37;;;8.00;99.90;;;;;;5025918;28;20213;-76
2022/04/18 07:37:19;;;;;;;4.33;2.27;;;8.20;99.90;;;;;;5050465;28;20192;-76
2022/04/18 07:39:45;;;;;;;3.60;2.63;;;8.40;99.90;;;;;;5003559;28;20739;-76
2022/04/18 07:42:10;;;;;;;2.80;2.30;;;8.60;99.90;;;;;;5019508;28;20184;-76
2022/04/18 07:44:36;;;;;;;3.00;2.17;;;8.80;99.90;;;;;;5003398;28;20176;-76
2022/04/18 07:47:02;;;;;;;3.40;2.30;;;9.00;99.90;;;;;;5003445;28;20617;-75
2022/04/18 07:49:28;;;;;;;2.57;2.20;;;9.20;99.90;;;;;;5003395;28;20182;-76
2022/04/18 07:51:54;;;;;;;3.33;2.07;;;9.40;99.90;;;;;;5036184;28;20209;-76
2022/04/18 07:54:20;;;;;;;2.67;2.20;;;9.50;99.90;;;;;;5019734;28;20240;-75
2022/04/18 07:56:46;;;;;;;3.17;2.07;;;9.70;99.90;;;;;;5036106;28;20276;-76
2022/04/18 07:59:12;;;;;;;4.17;2.20;;;9.90;99.90;;;;;;5036394;28;20315;-76
2022/04/18 08:01:38;;;;;;;3.90;2.37;;;10.00;99.90;;;;;;5036235;28;20184;-76
2022/04/18 08:04:05;;;;;;;2.43;2.00;;;10.20;99.90;;;;;;5035782;28;20266;-76
2022/04/18 08:06:32;;;;;;;2.43;1.97;;;10.40;99.90;;;;;;5036133;28;20175;-76
2022/04/18 08:08:58;;;;;;;2.87;2.00;;;10.50;99.90;;;;;;5019636;28;20196;-76
2022/04/18 08:11:24;;;;;;;2.10;1.90;;;10.60;99.90;;;;;;5019754;28;20198;-76
2022/04/18 08:13:51;;;;;;;2.47;2.17;;;10.70;99.90;;;;;;5019503;28;20172;-76
2022/04/18 08:16:18;;;;;;;2.23;2.00;;;10.90;99.90;;;;;;5036010;28;20172;-76
2022/04/18 08:18:44;;;;;;;2.13;1.80;;;11.00;99.90;;;;;;5019270;28;20208;-76
2022/04/18 08:21:15;;;;;;;2.77;2.17;;;11.10;99.90;;;;;;5053367;28;20175;-75
2022/04/18 08:23:45;;;;;;;2.83;2.00;;;11.20;99.90;;;;;;5035571;28;20163;-76
2022/04/18 08:26:11;;;;;;;3.17;1.90;;;11.50;99.90;;;;;;5035213;28;20686;-76
2022/04/18 08:28:38;;;;;;;3.47;1.97;;;11.60;99.90;;;;;;5018872;28;20197;-76
2022/04/18 08:31:05;;;;;;;3.20;2.10;;;11.70;99.90;;;;;;5035719;28;20213;-76
2022/04/18 08:33:32;;;;;;;2.03;1.80;;;11.80;99.90;;;;;;5019089;28;20229;-76
2022/04/18 08:35:58;;;;;;;2.53;2.03;;;11.90;99.90;;;;;;5019554;28;20219;-76
2022/04/18 08:38:25;;;;;;;2.37;1.90;;;12.00;99.90;;;;;;5035624;28;20192;-76
2022/04/18 08:41:11;;;;;;;2.00;1.80;;;12.20;99.90;;;;;;5035160;28;20185;-76
2022/04/18 08:43:40;;;;;;;3.53;2.00;;;12.40;99.90;;;;;;5018745;28;20162;-76
2022/04/18 08:46:06;;;;;;;2.50;2.03;;;12.50;99.90;;;;;;5053022;28;20845;-76
2022/04/18 08:54:02;;;;;;;2.27;2.07;;;12.80;99.90;;;;;;5053015;28;20170;-76
2022/04/18 08:56:28;;;;;;;3.47;2.30;;;13.00;99.90;;;;;;5035041;28;20174;-76
2022/04/18 08:58:54;;;;;;;4.27;2.10;;;13.10;99.90;;;;;;5018743;28;20260;-76
2022/04/18 09:01:20;;;;;;;2.47;2.00;;;13.00;99.90;;;;;;5034322;28;20744;-76
2022/04/18 09:03:45;;;;;;;2.90;2.07;;;13.10;99.90;;;;;;5035239;28;20735;-76
2022/04/18 09:06:12;;;;;;;2.40;2.03;;;13.10;99.90;;;;;;5002070;28;20234;-76
2022/04/18 09:08:52;;;;;;;2.33;1.90;;;13.30;99.90;;;;;;5034906;28;20193;-76
2022/04/18 09:11:36;;;;;;;2.20;1.90;;;13.40;99.90;;;;;;5034803;28;20193;-77
2022/04/18 09:14:10;;;;;;;1.87;1.67;;;13.60;99.90;;;;;;5034740;28;20170;-76
2022/04/18 09:16:37;;;;;;;3.60;2.20;;;13.80;99.90;;;;;;5052408;28;20196;-77
2022/04/18 09:19:05;;;;;;;2.50;2.00;;;13.70;99.90;;;;;;5002625;28;20186;-76
2022/04/18 09:21:31;;;;;;;4.03;2.20;;;13.80;99.90;;;;;;5035105;28;20219;-77
2022/04/18 09:23:57;;;;;;;2.93;2.10;;;13.90;99.30;;;;;;5018295;28;20683;-76
2022/04/18 09:26:27;;;;;;;2.23;1.80;;;14.00;99.30;;;;;;5034803;28;20173;-76
2022/04/18 09:29:03;;;;;;;3.10;1.70;;;13.90;99.00;;;;;;5018599;28;20165;-76
2022/04/18 09:31:38;;;;;;;3.00;1.90;;;14.00;99.40;;;;;;5034791;28;20242;-76
2022/04/18 09:34:03;;;;;;;3.00;1.83;;;14.20;98.80;;;;;;5034363;28;20161;-76
2022/04/18 09:36:29;;;;;;;2.20;2.00;;;14.50;99.90;;;;;;5001606;28;20185;-76
2022/04/18 09:38:56;;;;;;;2.17;1.90;;;14.70;97.40;;;;;;5018045;28;20188;-76
2022/04/18 09:41:28;;;;;;;3.27;1.80;;;15.00;97.60;;;;;;5018173;28;20176;-77
2022/04/18 09:43:55;;;;;;;2.67;1.70;;;15.10;96.90;;;;;;5035465;28;20158;-76
2022/04/18 09:46:22;;;;;;;1.77;1.67;;;15.30;97.20;;;;;;5034651;28;20586;-76
2022/04/18 09:48:49;;;;;;;3.83;1.90;;;15.30;95.40;;;;;;5001786;28;20217;-76
2022/04/18 09:51:25;;;;;;;1.97;1.60;;;15.30;95.50;;;;;;5017773;28;20205;-76
2022/04/18 09:53:54;;;;;;;2.80;1.90;;;15.10;94.20;;;;;;5034262;28;20161;-78
2022/04/18 09:56:21;;;;;;;3.67;1.93;;;15.00;94.30;;;;;;5034423;28;20192;-77
2022/04/18 09:58:48;;;;;;;2.20;2.00;;;15.30;94.40;;;;;;5017864;28;20647;-77
2022/04/18 10:01:14;;;;;;;2.40;1.90;;;15.40;93.90;;;;;;5034488;28;20212;-76
2022/04/18 10:03:41;;;;;;;2.00;1.60;;;15.60;94.90;;;;;;5034168;28;20201;-77
2022/04/18 10:06:08;;;;;;;2.00;1.70;;;15.60;94.10;;;;;;5034572;28;20177;-77
2022/04/18 10:08:35;;;;;;;2.53;1.67;;;15.80;93.50;;;;;;5018271;28;20198;-77
2022/04/18 10:11:02;;;;;;;2.43;1.73;;;15.90;93.40;;;;;;5017971;28;20204;-78
2022/04/18 10:13:29;;;;;;;1.50;1.40;;;16.10;91.70;;;;;;5004154;28;20251;-76
2022/04/18 10:15:58;;;;;;;1.60;1.40;;;16.20;90.90;;;;;;5056060;28;20204;-77
2022/04/18 10:18:24;;;;;;;1.47;1.20;;;16.40;81.70;;;;;;5038371;28;20189;-77
2022/04/18 10:21:04;;;;;;;1.90;1.53;;;16.30;78.90;;;;;;5021917;28;20173;-77
2022/04/18 10:23:48;;;;;;;1.40;1.30;;;16.10;91.10;;;;;;5037755;28;20215;-77
2022/04/18 10:26:51;;;;;;;1.97;1.40;;;16.10;79.70;;;;;;5055127;28;20166;-78
2022/04/18 10:29:26;;;;;;;1.53;1.30;;;16.10;79.40;;;;;;5037154;28;20181;-77
2022/04/18 10:31:53;;;;;;;2.63;1.73;;;15.90;76.80;;;;;;5037180;28;20204;-76
2022/04/18 10:34:23;;;;;;;2.07;1.40;;;16.00;83.30;;;;;;5037461;28;20174;-76
2022/04/18 10:36:52;;;;;;;1.83;1.40;;;16.20;85.70;;;;;;5036943;28;20186;-76
2022/04/18 10:39:19;;;;;;;2.90;1.50;;;16.50;83.80;;;;;;5037363;28;20231;-76
2022/04/18 10:41:49;;;;;;;2.20;1.60;;;16.30;77.80;;;;;;5020960;28;20174;-76
2022/04/18 10:44:20;;;;;;;1.80;1.60;;;16.30;81.90;;;;;;5037333;28;20574;-77
2022/04/18 10:46:51;;;;;;;2.47;1.50;;;16.90;83.60;;;;;;5036930;28;20208;-76
2022/04/18 10:49:18;;;;;;;1.43;1.30;;;16.90;76.00;;;;;;5036926;28;20181;-76
2022/04/18 10:51:46;;;;;;;1.50;1.20;;;16.30;69.70;;;;;;5020722;28;20292;-76
2022/04/18 10:54:16;;;;;;;1.50;1.20;;;16.50;68.80;;;;;;5020415;28;20182;-76
2022/04/18 10:57:02;;;;;;;1.30;1.20;;;17.00;74.20;;;;;;5020074;28;20184;-76
2022/04/18 10:59:32;;;;;;;2.27;1.33;;;17.60;68.20;;;;;;5020442;28;20181;-76
2022/04/18 11:02:03;;;;;;;1.97;1.20;;;17.80;66.90;;;;;;5004207;28;20173;-76
2022/04/18 11:04:41;;;;;;;1.10;1.00;;;17.80;63.10;;;;;;5037266;28;20553;-76
2022/04/18 11:07:09;;;;;;;1.40;1.30;;;18.10;62.70;;;;;;5036518;28;20194;-76
2022/04/18 11:09:41;;;;;;;1.67;1.20;;;18.50;66.10;;;;;;5036679;28;20166;-77
2022/04/18 11:12:16;;;;;;;1.97;1.43;;;18.80;64.10;;;;;;5036029;28;20205;-76
2022/04/18 11:14:55;;;;;;;1.93;1.30;;;19.00;64.20;;;;;;5036616;28;20176;-76
2022/04/18 11:17:29;;;;;;;1.70;1.20;;;19.20;63.00;;;;;;5054132;28;20185;-76
2022/04/18 11:19:55;;;;;;;1.90;1.20;;;19.30;59.60;;;;;;5019986;28;20598;-76
2022/04/18 11:22:24;;;;;;;1.30;1.10;;;19.30;58.40;;;;;;5035990;28;20174;-76
2022/04/18 11:24:53;;;;;;;1.20;1.10;;;19.50;57.80;;;;;;5035856;28;20178;-76
2022/04/18 11:27:22;;;;;;;1.37;1.20;;;19.60;59.40;;;;;;5036309;28;20247;-76
2022/04/18 11:29:58;;;;;;;1.60;1.20;;;19.70;56.30;;;;;;5054214;28;20177;-76
2022/04/18 11:32:28;;;;;;;1.70;1.20;;;19.60;53.70;;;;;;5020442;28;20250;-76
2022/04/18 11:34:55;;;;;;;1.20;1.10;;;19.70;55.20;;;;;;5036663;28;20165;-76
2022/04/18 11:37:27;;;;;;;1.10;1.00;;;19.80;53.50;;;;;;5035952;28;20197;-81
2022/04/18 11:39:56;;;;;;;1.20;1.10;;;19.80;54.00;;;;;;5019848;28;20742;-76
2022/04/18 11:42:24;;;;;;;1.60;1.17;;;19.90;53.90;;;;;;5053694;28;20170;-76
2022/04/18 11:44:51;;;;;;;4.20;1.40;;;20.20;54.90;;;;;;5003490;28;20323;-76
2022/04/18 11:47:23;;;;;;;1.70;1.10;;;20.40;55.20;;;;;;5035637;28;20193;-77
2022/04/18 11:49:54;;;;;;;1.73;1.20;;;20.30;51.70;;;;;;5003508;28;20178;-77
2022/04/18 11:52:28;;;;;;;2.60;1.30;;;19.80;51.70;;;;;;5035634;28;20201;-77
2022/04/18 11:55:15;;;;;;;1.43;1.20;;;19.70;50.10;;;;;;5020070;28;20178;-77
2022/04/18 11:57:45;;;;;;;1.63;1.33;;;19.70;51.70;;;;;;5053435;28;20198;-76
2022/04/18 12:00:13;;;;;;;1.40;1.17;;;20.00;49.10;;;;;;5019437;28;20180;-76
2022/04/18 12:08:18;;;;;;;2.63;1.20;;;20.30;49.00;;;;;;5038511;28;20261;-75
2022/04/18 12:10:45;;;;;;;1.23;1.13;;;20.50;47.90;;;;;;5019078;28;20300;-76
2022/04/18 12:13:12;;;;;;;1.20;1.10;;;20.50;47.70;;;;;;5035132;28;20174;-76
2022/04/18 12:15:40;;;;;;;2.13;1.20;;;20.80;48.50;;;;;;5053106;28;20212;-76
2022/04/18 12:18:14;;;;;;;1.90;1.30;;;20.70;48.20;;;;;;5018795;28;20286;-76
2022/04/18 12:20:49;;;;;;;1.77;1.10;;;20.50;48.00;;;;;;5035196;28;20264;-76
2022/04/18 12:23:25;;;;;;;1.73;1.25;;;20.70;47.30;;;;;;5034932;28;20183;-76
2022/04/18 12:25:56;;;;;;;2.22;1.00;;;21.10;48.10;;;;;;5018830;28;20216;-76
2022/04/18 12:28:29;;;;;;;0.95;0.95;;;20.90;43.30;;;;;;5052977;28;20410;-76
2022/04/18 12:30:56;;;;;;;1.05;0.95;;;20.70;45.40;;;;;;5034842;28;20217;-76
2022/04/18 12:33:27;;;;;;;1.60;1.23;;;20.70;46.10;;;;;;5018431;28;20213;-76
2022/04/18 12:35:54;;;;;;;1.40;1.20;;;20.80;47.60;;;;;;5052005;28;20640;-76
2022/04/18 12:38:29;;;;;;;4.97;1.50;;;21.20;46.00;;;;;;5019008;28;20208;-77
2022/04/18 12:40:56;;;;;;;3.10;1.20;;;21.60;47.10;;;;;;5035446;28;20176;-77
2022/04/18 12:43:28;;;;;;;1.50;1.30;;;21.70;43.30;;;;;;5035044;28;20227;-77
2022/04/18 12:46:02;;;;;;;2.10;1.20;;;21.50;40.50;;;;;;5018547;28;20627;-77
2022/04/18 12:48:32;;;;;;;1.20;1.10;;;21.30;39.60;;;;;;5034776;28;20250;-76
2022/04/18 12:51:03;;;;;;;1.30;1.20;;;21.40;43.40;;;;;;5034450;28;20205;-76
2022/04/18 12:53:46;;;;;;;1.30;1.02;;;21.50;45.50;;;;;;5017982;28;20551;-76
2022/04/18 12:56:20;;;;;;;1.10;1.00;;;21.50;44.70;;;;;;5034529;28;20671;-76
2022/04/18 12:58:52;;;;;;;2.10;1.20;;;21.80;44.30;;;;;;5055184;22;20263;-76
2022/04/18 13:01:28;;;;;;;2.70;1.20;;;22.00;43.80;;;;;;5035339;28;20166;-75
2022/04/18 13:03:55;;;;;;;1.77;1.38;;;22.00;43.10;;;;;;5051143;28;20543;-75
2022/04/18 13:06:24;;;;;;;1.20;1.10;;;21.70;43.60;;;;;;5034569;28;20632;-76
2022/04/18 13:09:02;;;;;;;1.90;1.10;;;21.40;45.80;;;;;;5034382;28;20205;-76
2022/04/18 13:11:45;;;;;;;1.75;1.10;;;21.40;43.40;;;;;;5050904;28;20205;-75
2022/04/18 13:14:12;;;;;;;0.98;0.93;;;21.30;42.20;;;;;;5034396;28;20180;-76
2022/04/18 13:16:42;;;;;;;1.02;0.93;;;21.00;41.60;;;;;;5034555;28;20178;-75
2022/04/18 13:19:14;;;;;;;1.23;1.00;;;21.10;41.60;;;;;;5050866;28;20217;-76
2022/04/18 13:21:42;;;;;;;1.30;1.20;;;21.10;41.00;;;;;;5034399;28;20177;-76